Terminal Aerodrome Forecast
Issued by NWS

Home | Current Version | Previous Version | Text Only | Print | Product List | Glossary On
Versions: 1 2 3 4 5 6 7 8 9 10 11 12 13 14
000
FTUS43 KUNR 200600 AAA
TAFGCC
TAF AMD
KGCC 200658Z 2007/2106 23016G26KT P6SM SCT080 BKN120
     FM200900 22011KT P6SM SCT050 BKN100
      TEMPO 2010/2012 -TSRA BKN050CB
     FM201700 34009KT P6SM SCT050 BKN100=

USA.gov is the U.S. government's official web portal to all federal, state and local government web resources and services.